D/T METAR WX W/DIR W/SPE G/SPE TEMP DEWP
16/01/19 03:20 EGSH 160320Z AUTO 22012KT 9999 FEW017/// 08/06 Q1008 SW (220°) 13.8mph 8°C 6°C
16/01/19 02:50 EGSH 160250Z AUTO 22013KT 9999 FEW017/// SCT032/// 08/06 Q1008 SW (220°) 15.0mph 8°C 6°C
16/01/19 02:20 EGSH 160220Z AUTO 23012KT 9999 FEW017/// BKN032/// 08/06 Q1009 SW (230°) 13.8mph 8°C 6°C
16/01/19 01:50 EGSH 160150Z AUTO 23012KT 180V250 9999 BKN029/// 08/06 Q1009 SW (230°) 13.8mph 8°C 6°C
16/01/19 01:20 EGSH 160120Z AUTO 23011KT 9999 FEW019/// OVC027/// 08/06 Q1009 SW (230°) 12.7mph 8°C 6°C
16/01/19 00:50 EGSH 160050Z AUTO 23011KT 9999 FEW020/// OVC027/// 08/06 Q1010 SW (230°) 12.7mph 8°C 6°C
16/01/19 00:20 EGSH 160020Z AUTO 23012KT 9999 OVC027/// 08/06 Q1010 SW (230°) 13.8mph 8°C 6°C
15/01/19 23:20 EGSH 152320Z AUTO 23012KT 9999 FEW030/// 08/06 Q1011 SW (230°) 13.8mph 8°C 6°C
15/01/19 22:50 EGSH 152250Z AUTO 23013KT 9999 FEW033/// 08/06 Q1011 SW (230°) 15.0mph 8°C 6°C
15/01/19 22:20 EGSH 152220Z AUTO 23011KT 9999 SCT033/// 08/06 Q1011 SW (230°) 12.7mph 8°C 6°C
15/01/19 21:50 EGSH 152150Z AUTO 23011KT 9999 BKN033/// 08/06 Q1012 SW (230°) 12.7mph 8°C 6°C
15/01/19 21:20 EGSH 152120Z 23010KT 9999 BKN034 08/06 Q1012 NOSIG SW (230°) 11.5mph 8°C 6°C
15/01/19 20:50 EGSH 152050Z 22009KT 9999 BKN033 08/06 Q1012 NOSIG SW (220°) 10.4mph 8°C 6°C
15/01/19 20:20 EGSH 152020Z 23008KT 9999 BKN033 08/06 Q1013 NOSIG SW (230°) 9.2mph 8°C 6°C
15/01/19 19:50 EGSH 151950Z 23008KT 200V260 9999 BKN033 08/06 Q1013 NOSIG SW (230°) 9.2mph 8°C 6°C
15/01/19 19:20 EGSH 151920Z 22009KT 9999 BKN033 08/06 Q1013 NOSIG SW (220°) 10.4mph 8°C 6°C
15/01/19 18:50 EGSH 151850Z 22007KT 9999 BKN030 07/06 Q1013 NOSIG SW (220°) 8.1mph 7°C 6°C
15/01/19 18:20 EGSH 151820Z 23009KT CAVOK 07/06 Q1013 NOSIG SW (230°) 10.4mph 7°C 6°C
15/01/19 16:20 EGSH 151620Z 24010KT 9999 FEW047 07/05 Q1014 NOSIG WSW (240°) 11.5mph 7°C 5°C
15/01/19 15:50 EGSH 151550Z 24012KT 9999 FEW047 08/06 Q1014 WSW (240°) 13.8mph 8°C 6°C
15/01/19 15:20 EGSH 151520Z 25013KT 9999 FEW047 09/06 Q1014 WSW (250°) 15.0mph 9°C 6°C
15/01/19 14:50 EGSH 151450Z 25014KT 9999 BKN046 10/06 Q1015 NOSIG WSW (250°) 16.1mph 10°C 6°C
15/01/19 14:20 EGSH 151420Z 25013KT 9999 BKN046 09/06 Q1015 NOSIG WSW (250°) 15.0mph 9°C 6°C
15/01/19 13:50 EGSH 151350Z 25012KT 9999 BKN046 10/06 Q1015 NOSIG WSW (250°) 13.8mph 10°C 6°C
15/01/19 12:50 EGSH 151250Z 25011KT 9999 BKN046 09/06 Q1016 WSW (250°) 12.7mph 9°C 6°C
15/01/19 12:20 EGSH 151220Z 25013KT 9999 BKN046 09/06 Q1016 NOSIG WSW (250°) 15.0mph 9°C 6°C
15/01/19 11:50 EGSH 151150Z 25011KT 9999 BKN042 09/06 Q1016 NOSIG WSW (250°) 12.7mph 9°C 6°C
15/01/19 11:20 EGSH 151120Z 25011KT 9999 BKN040 08/06 Q1016 NOSIG WSW (250°) 12.7mph 8°C 6°C
15/01/19 10:20 EGSH 151020Z 25010KT CAVOK 06/05 Q1017 NOSIG WSW (250°) 11.5mph 6°C 5°C
15/01/19 09:50 EGSH 150950Z 24012KT CAVOK 06/04 Q1017 NOSIG WSW (240°) 13.8mph 6°C 4°C
15/01/19 09:20 EGSH 150920Z 24011KT 9999 SCT039 06/04 Q1017 NOSIG WSW (240°) 12.7mph 6°C 4°C
15/01/19 08:50 EGSH 150850Z 24010KT 9999 SCT033 SCT039 05/04 Q1017 NOSIG WSW (240°) 11.5mph 5°C 4°C
15/01/19 08:20 EGSH 150820Z 24009KT 9999 BKN032 05/04 Q1017 WSW (240°) 10.4mph 5°C 4°C
15/01/19 07:20 EGSH 150720Z 24009KT 9999 BKN032 04/03 Q1017 NOSIG WSW (240°) 10.4mph 4°C 3°C
15/01/19 06:50 EGSH 150650Z 25011KT 9999 SCT031 04/03 Q1017 NOSIG WSW (250°) 12.7mph 4°C 3°C
15/01/19 06:20 EGSH 150620Z 24011KT CAVOK 03/02 Q1017 NOSIG WSW (240°) 12.7mph 3°C 2°C
15/01/19 05:50 EGSH 150550Z 24010KT CAVOK 03/02 Q1017 WSW (240°) 11.5mph 3°C 2°C
15/01/19 05:20 EGSH 150520Z AUTO 25011KT 9999 NCD 03/02 Q1018 WSW (250°) 12.7mph 3°C 2°C
15/01/19 04:50 EGSH 150450Z AUTO 24010KT 9999 NCD 03/02 Q1018 WSW (240°) 11.5mph 3°C 2°C
15/01/19 04:20 EGSH 150420Z AUTO 24010KT 9999 NCD 03/02 Q1018 WSW (240°) 11.5mph 3°C 2°C
15/01/19 03:50 EGSH 150350Z AUTO 24008KT 9999 NCD 03/02 Q1018 WSW (240°) 9.2mph 3°C 2°C
15/01/19 03:20 EGSH 150320Z AUTO 24009KT 9999 NCD 03/02 Q1019 WSW (240°) 10.4mph 3°C 2°C
15/01/19 02:50 EGSH 150250Z AUTO 24008KT 9999 NCD 03/02 Q1019 WSW (240°) 9.2mph 3°C 2°C
15/01/19 02:20 EGSH 150220Z AUTO 25009KT 9999 NCD 03/02 Q1019 WSW (250°) 10.4mph 3°C 2°C
15/01/19 01:50 EGSH 150150Z AUTO 25009KT 9999 NCD 03/03 Q1019 WSW (250°) 10.4mph 3°C 3°C
15/01/19 01:20 EGSH 150120Z AUTO 24009KT 9999 FEW046/// 03/03 Q1019 WSW (240°) 10.4mph 3°C 3°C
15/01/19 00:50 EGSH 150050Z AUTO 25008KT 9999 FEW038/// 03/02 Q1019 WSW (250°) 9.2mph 3°C 2°C
15/01/19 00:20 EGSH 150020Z AUTO 25009KT 9999 BKN038/// 03/03 Q1020 WSW (250°) 10.4mph 3°C 3°C
14/01/19 23:50 EGSH 142350Z AUTO 25008KT 9999 FEW042/// 03/02 Q1020 WSW (250°) 9.2mph 3°C 2°C
14/01/19 22:50 EGSH 142250Z AUTO 24007KT 9999 NCD 03/02 Q1020 WSW (240°) 8.1mph 3°C 2°C
14/01/19 22:20 EGSH 142220Z AUTO 25009KT 9999 FEW049/// 03/02 Q1020 WSW (250°) 10.4mph 3°C 2°C
14/01/19 21:50 EGSH 142150Z AUTO 24007KT 8000 NCD 02/02 Q1020 WSW (240°) 8.1mph 2°C 2°C
14/01/19 21:20 EGSH 142120Z AUTO 21005KT 5000 BR FEW027/// 02/01 Q1020 BR SSW (210°) 5.8mph 2°C 1°C
14/01/19 20:50 EGSH 142050Z 22006KT 9999 FEW043 02/01 Q1021 NOSIG SW (220°) 6.9mph 2°C 1°C
14/01/19 20:20 EGSH 142020Z 22006KT 9999 FEW043 02/01 Q1021 NOSIG SW (220°) 6.9mph 2°C 1°C
14/01/19 19:50 EGSH 141950Z 22005KT 9999 MIFG BKN048 02/01 Q1021 NOSIG MIFG SW (220°) 5.8mph 2°C 1°C
14/01/19 19:20 EGSH 141920Z 22005KT 9999 MIFG NSC 01/00 Q1021 NOSIG MIFG SW (220°) 5.8mph 1°C 0°C
14/01/19 18:50 EGSH 141850Z 23004KT 9999 MIFG NSC 01/01 Q1021 NOSIG MIFG SW (230°) 4.6mph 1°C 1°C
14/01/19 18:20 EGSH 141820Z 23003KT 9999 MIFG NSC 03/02 Q1021 NOSIG MIFG SW (230°) 3.5mph 3°C 2°C
14/01/19 17:50 EGSH 141750Z 28002KT 9999 MIFG NSC 03/03 Q1021 MIFG W (280°) 2.3mph 3°C 3°C
14/01/19 17:20 EGSH 141720Z 27003KT 9999 VCSH FEW022 03/02 Q1021 NOSIG VCSH W (270°) 3.5mph 3°C 2°C
14/01/19 16:50 EGSH 141650Z 28002KT 9999 VCSH FEW022 04/03 Q1021 NOSIG VCSH W (280°) 2.3mph 4°C 3°C
14/01/19 16:20 EGSH 141620Z 31003KT 9999 VCSH FEW009 SCT014 BKN030 05/03 Q1021 NOSIG VCSH NW (310°) 3.5mph 5°C 3°C
14/01/19 15:50 EGSH 141550Z 34005KT 300V010 9999 VCSH FEW009 SCT014 BKN030 06/04 Q1021 NOSIG VCSH NNW (340°) 5.8mph 6°C 4°C
14/01/19 15:20 EGSH 141520Z VRB03KT 9999 VCSH FEW010 SCT020 06/04 Q1020 VCSH N (0°) 3.5mph 6°C 4°C
14/01/19 14:50 EGSH 141450Z 31005KT 270V350 9999 VCSH FEW015 BKN033 06/04 Q1020 NOSIG VCSH NW (310°) 5.8mph 6°C 4°C
14/01/19 14:20 EGSH 141420Z 31004KT 270V350 9999 VCSH FEW013 BKN036 06/04 Q1020 NOSIG VCSH NW (310°) 4.6mph 6°C 4°C
14/01/19 13:50 EGSH 141350Z 29007KT 9999 -SHRA FEW022 BKN028 06/05 Q1019 NOSIG -SHRA WNW (290°) 8.1mph 6°C 5°C
14/01/19 13:20 EGSH 141320Z 29007KT 9999 VCSH FEW021 BKN028 06/04 Q1019 NOSIG VCSH WNW (290°) 8.1mph 6°C 4°C
14/01/19 12:50 EGSH 141250Z 29008KT 9999 VCSH FEW020 BKN025 06/04 Q1019 VCSH WNW (290°) 9.2mph 6°C 4°C
14/01/19 12:20 EGSH 141220Z 29007KT 9999 7000W -SHRA FEW014 SCT020 BKN028 06/04 Q1019 NOSIG -SHRA WNW (290°) 8.1mph 6°C 4°C
14/01/19 11:50 EGSH 141150Z 30008KT 240V360 9999 -SHRA FEW014 BKN028 06/04 Q1019 NOSIG -SHRA WNW (300°) 9.2mph 6°C 4°C
14/01/19 11:20 EGSH 141120Z 32007KT 290V360 9999 FEW019 SCT030 07/04 Q1019 NOSIG NW (320°) 8.1mph 7°C 4°C
14/01/19 10:50 EGSH 141050Z 33007KT 290V010 9999 SCT036 07/04 Q1018 NOSIG NNW (330°) 8.1mph 7°C 4°C
14/01/19 10:20 EGSH 141020Z 31006KT 260V350 9999 6000SE -SHRA SCT027 06/04 Q1018 NOSIG -SHRA NW (310°) 6.9mph 6°C 4°C
14/01/19 09:50 EGSH 140950Z 30005KT 270V350 9999 VCSH SCT027 06/04 Q1018 NOSIG VCSH WNW (300°) 5.8mph 6°C 4°C
14/01/19 09:20 EGSH 140920Z 28007KT 9999 VCSH FEW016 SCT032 05/04 Q1018 NOSIG VCSH W (280°) 8.1mph 5°C 4°C
14/01/19 08:50 EGSH 140850Z 31005KT 260V340 9999 -RA FEW016 SCT032 05/03 Q1017 NOSIG -RA NW (310°) 5.8mph 5°C 3°C
14/01/19 08:20 EGSH 140820Z 31005KT 270V360 9999 SCT031 05/03 Q1017 NOSIG NW (310°) 5.8mph 5°C 3°C
14/01/19 07:50 EGSH 140750Z 30005KT 270V340 9999 SCT019 SCT034 05/03 Q1016 NOSIG WNW (300°) 5.8mph 5°C 3°C
14/01/19 07:20 EGSH 140720Z 30008KT 9999 SCT041 05/03 Q1016 NOSIG WNW (300°) 9.2mph 5°C 3°C
14/01/19 06:50 EGSH 140650Z 29006KT 270V330 9999 SCT036 05/03 Q1015 WNW (290°) 6.9mph 5°C 3°C
14/01/19 05:50 EGSH 140550Z 30009KT 260V340 CAVOK 05/03 Q1015 WNW (300°) 10.4mph 5°C 3°C
14/01/19 05:20 EGSH 140520Z AUTO 29009KT 250V320 9999 NCD 05/03 Q1014 WNW (290°) 10.4mph 5°C 3°C
14/01/19 04:50 EGSH 140450Z AUTO 30009KT 9999 NCD 06/03 Q1014 WNW (300°) 10.4mph 6°C 3°C
14/01/19 04:20 EGSH 140420Z AUTO 30010KT 9999 NCD 06/03 Q1013 WNW (300°) 11.5mph 6°C 3°C
14/01/19 03:50 EGSH 140350Z AUTO 30010KT 9999 NCD 06/03 Q1013 WNW (300°) 11.5mph 6°C 3°C
14/01/19 03:20 EGSH 140320Z AUTO 29009KT 270V330 9999 NCD 06/03 Q1013 WNW (290°) 10.4mph 6°C 3°C
14/01/19 02:50 EGSH 140250Z AUTO 29010KT 9999 NCD 06/03 Q1012 WNW (290°) 11.5mph 6°C 3°C
14/01/19 02:20 EGSH 140220Z AUTO 28011KT 9999 NCD 06/03 Q1012 W (280°) 12.7mph 6°C 3°C
14/01/19 01:50 EGSH 140150Z AUTO 29011KT 9999 NCD 06/03 Q1012 WNW (290°) 12.7mph 6°C 3°C
14/01/19 01:20 EGSH 140120Z AUTO 29010KT 270V330 9999 NCD 06/03 Q1011 WNW (290°) 11.5mph 6°C 3°C
14/01/19 00:50 EGSH 140050Z AUTO 29012KT 270V330 9999 NCD 06/03 Q1011 WNW (290°) 13.8mph 6°C 3°C
13/01/19 23:50 EGSH 132350Z AUTO 29013KT 270V330 9999 NCD 07/04 Q1010 WNW (290°) 15.0mph 7°C 4°C
13/01/19 23:20 EGSH 132320Z AUTO 29015KT 9999 NCD 07/04 Q1010 WNW (290°) 17.3mph 7°C 4°C
13/01/19 22:50 EGSH 132250Z AUTO 29013KT 9999 NCD 07/04 Q1010 WNW (290°) 15.0mph 7°C 4°C
13/01/19 22:20 EGSH 132220Z AUTO 29015KT 9999 NCD 07/04 Q1009 WNW (290°) 17.3mph 7°C 4°C
13/01/19 21:20 EGSH 132120Z 29013KT 270V330 CAVOK 07/04 Q1009 NOSIG WNW (290°) 15.0mph 7°C 4°C
13/01/19 20:50 EGSH 132050Z 28016KT CAVOK 07/03 Q1008 NOSIG W (280°) 18.4mph 7°C 3°C
13/01/19 20:20 EGSH 132020Z 29014KT 270V330 CAVOK 07/03 Q1008 NOSIG WNW (290°) 16.1mph 7°C 3°C
13/01/19 19:50 EGSH 131950Z 29014KT 270V330 CAVOK 08/03 Q1008 NOSIG WNW (290°) 16.1mph 8°C 3°C
13/01/19 19:20 EGSH 131920Z 29017KT 270V330 9999 FEW036 08/04 Q1008 WNW (290°) 19.6mph 8°C 4°C
13/01/19 18:50 EGSH 131850Z 29016G26KT 9999 FEW036 09/04 Q1007 NOSIG WNW (290°) 18.4mph 29.9mph 9°C 4°C
13/01/19 17:50 EGSH 131750Z 29017KT 9999 FEW036 09/05 Q1007 NOSIG WNW (290°) 19.6mph 9°C 5°C
13/01/19 17:20 EGSH 131720Z 29023G34KT 260V320 9999 SCT038 10/06 Q1007 NOSIG WNW (290°) 26.5mph 39.1mph 10°C 6°C
13/01/19 16:50 EGSH 131650Z 30015KT 270V340 9999 FEW021 SCT027 10/06 Q1006 NOSIG WNW (300°) 17.3mph 10°C 6°C
13/01/19 16:20 EGSH 131620Z 29015KT 260V320 9999 FEW021 SCT027 10/07 Q1006 NOSIG WNW (290°) 17.3mph 10°C 7°C
13/01/19 15:50 EGSH 131550Z 29014KT 250V320 9999 -RA FEW006 SCT021 BKN033 10/08 Q1006 NOSIG -RA WNW (290°) 16.1mph 10°C 8°C
13/01/19 15:20 EGSH 131520Z 28017KT 9999 FEW016 SCT024 BKN032 11/08 Q1006 TEMPO BKN014 W (280°) 19.6mph 11°C 8°C
13/01/19 14:50 EGSH 131450Z 27017KT 9999 -DZ FEW016 SCT024 BKN032 10/08 Q1006 -DZ W (270°) 19.6mph 10°C 8°C
13/01/19 14:20 EGSH 131420Z 27017KT 240V310 9999 SCT015 BKN019 10/08 Q1006 TEMPO BKN012 W (270°) 19.6mph 10°C 8°C
13/01/19 13:50 EGSH 131350Z 27018KT 9999 SCT016 BKN021 11/08 Q1007 NOSIG W (270°) 20.7mph 11°C 8°C
13/01/19 13:20 EGSH 131320Z 28018G28KT 9999 BKN016 11/08 Q1007 NOSIG W (280°) 20.7mph 32.2mph 11°C 8°C
13/01/19 12:20 EGSH 131220Z 27019KT 9999 BKN016 10/08 Q1007 NOSIG W (270°) 21.9mph 10°C 8°C
13/01/19 11:50 EGSH 131150Z 27023G34KT 240V300 9999 FEW010 SCT019 11/08 Q1007 W (270°) 26.5mph 39.1mph 11°C 8°C
13/01/19 11:20 EGSH 131120Z 28023KT 9000 -DZ FEW018 SCT035 10/08 Q1008 NOSIG -DZ W (280°) 26.5mph 10°C 8°C
13/01/19 10:20 EGSH 131020Z 27018KT 9999 SCT019 10/07 Q1008 NOSIG W (270°) 20.7mph 10°C 7°C
13/01/19 09:50 EGSH 130950Z 27022KT 9999 SCT017 10/07 Q1009 NOSIG W (270°) 25.3mph 10°C 7°C
13/01/19 09:20 EGSH 130920Z 27020KT 9999 SCT017 10/07 Q1009 NOSIG W (270°) 23.0mph 10°C 7°C
13/01/19 08:50 EGSH 130850Z 26021G31KT 230V290 9999 BKN016 10/07 Q1009 NOSIG W (260°) 24.2mph 35.7mph 10°C 7°C
13/01/19 08:20 EGSH 130820Z 27019KT 9999 BKN016 10/07 Q1009 TEMPO BKN014 W (270°) 21.9mph 10°C 7°C
13/01/19 07:50 EGSH 130750Z 27018KT 9999 -SHRA FEW005 SCT017 10/07 Q1009 TEMPO BKN014 -SHRA W (270°) 20.7mph 10°C 7°C
13/01/19 07:20 EGSH 130720Z 27018KT 9999 BKN018 10/07 Q1009 NOSIG W (270°) 20.7mph 10°C 7°C
13/01/19 06:50 EGSH 130650Z 27017KT 9999 FEW022 10/07 Q1010 NOSIG W (270°) 19.6mph 10°C 7°C
13/01/19 05:50 EGSH 130550Z 27017KT 240V300 9999 SCT019 10/07 Q1010 W (270°) 19.6mph 10°C 7°C
13/01/19 05:20 EGSH 130520Z AUTO 27020KT 9999 SCT019/// 10/07 Q1010 W (270°) 23.0mph 10°C 7°C
13/01/19 04:50 EGSH 130450Z AUTO 27019KT 9999 FEW020/// 10/07 Q1010 W (270°) 21.9mph 10°C 7°C
13/01/19 04:20 EGSH 130420Z AUTO 27017KT 9999 FEW020/// 10/08 Q1011 W (270°) 19.6mph 10°C 8°C
13/01/19 03:50 EGSH 130350Z AUTO 27017KT 240V310 9999 NCD 10/07 Q1011 W (270°) 19.6mph 10°C 7°C
13/01/19 03:20 EGSH 130320Z AUTO 27018G28KT 230V290 9999 FEW019/// 11/08 Q1012 W (270°) 20.7mph 32.2mph 11°C 8°C
13/01/19 02:50 EGSH 130250Z AUTO 27017KT 9999 BKN018/// 11/08 Q1012 W (270°) 19.6mph 11°C 8°C
13/01/19 02:20 EGSH 130220Z AUTO 27015KT 9999 BKN019/// 11/08 Q1012 W (270°) 17.3mph 11°C 8°C
13/01/19 01:50 EGSH 130150Z AUTO 27015KT 9999 OVC018/// 10/08 Q1012 W (270°) 17.3mph 10°C 8°C
13/01/19 01:20 EGSH 130120Z AUTO 28016KT 260V320 9999 BKN017/// 10/08 Q1012 W (280°) 18.4mph 10°C 8°C
13/01/19 00:50 EGSH 130050Z AUTO 28015G25KT 250V310 9999 BKN013/// OVC018/// 10/08 Q1013 W (280°) 17.3mph 28.8mph 10°C 8°C
13/01/19 00:20 EGSH 130020Z AUTO 27014KT 9999 BKN015/// OVC019/// 10/08 Q1013 W (270°) 16.1mph 10°C 8°C
12/01/19 23:50 EGSH 122350Z AUTO 27012KT 240V310 9999 BKN015/// 10/08 Q1013 W (270°) 13.8mph 10°C 8°C
12/01/19 23:20 EGSH 122320Z AUTO 26011KT 9999 SCT013/// BKN017/// 10/08 Q1013 W (260°) 12.7mph 10°C 8°C
12/01/19 22:50 EGSH 122250Z AUTO 27012KT 9999 BKN016/// OVC032/// 09/08 Q1014 W (270°) 13.8mph 9°C 8°C
12/01/19 22:20 EGSH 122220Z AUTO 27012KT 9999 SCT015/// BKN020/// 09/08 Q1014 W (270°) 13.8mph 9°C 8°C
12/01/19 21:50 EGSH 122150Z AUTO 27011KT 9999 FEW011/// OVC016/// 09/08 Q1014 W (270°) 12.7mph 9°C 8°C
12/01/19 21:20 EGSH 122120Z 26011KT 9999 BKN012 09/08 Q1014 TEMPO BKN015 W (260°) 12.7mph 9°C 8°C
12/01/19 20:50 EGSH 122050Z 26011KT 9999 -RADZ BKN009 08/07 Q1014 TEMPO BKN010 -RA -DZ W (260°) 12.7mph 8°C 7°C
12/01/19 20:20 EGSH 122020Z 26012KT 9999 -RADZ BKN009 08/07 Q1015 TEMPO BKN010 -RA -DZ W (260°) 13.8mph 8°C 7°C